Time;durP1;ratioP1;P1;durP2;ratioP2;P2;SDS_P1;SDS_P2;PMS_P1;PMS_P2;Temp;Humidity;BMP_temperature;BMP_pressure;BME280_temperature;BME280_humidity;BME280_pressure;Samples;Min_cycle;Max_cycle;Signal;HPM_P1;HPM_P2
2022/11/01 00:01:06;;;;;;;22.83;7.45;;;;;;;8.22;100.00;101633.69;5031843;28;20039;-65
2022/11/01 00:03:32;;;;;;;18.65;6.47;;;;;;;8.14;100.00;101624.28;5030426;28;20039;-64
2022/11/01 00:05:57;;;;;;;27.80;7.13;;;;;;;8.01;100.00;101631.28;5031855;28;20021;-65
2022/11/01 00:08:23;;;;;;;22.00;6.72;;;;;;;8.01;100.00;101628.59;5030525;28;20026;-64
2022/11/01 00:10:49;;;;;;;18.25;6.72;;;;;;;8.00;100.00;101629.53;5031907;28;20028;-65
2022/11/01 00:13:14;;;;;;;25.77;6.40;;;;;;;8.14;100.00;101618.94;5031698;28;20030;-65
2022/11/01 00:15:40;;;;;;;18.67;6.25;;;;;;;8.23;100.00;101622.03;5032026;28;20061;-64
2022/11/01 00:18:05;;;;;;;17.42;7.25;;;;;;;8.24;100.00;101629.16;5033150;28;20033;-64
2022/11/01 00:20:31;;;;;;;22.70;6.68;;;;;;;8.17;100.00;101638.47;5035885;28;20021;-64
2022/11/01 00:22:57;;;;;;;23.70;6.55;;;;;;;8.18;100.00;101624.97;5035475;28;20067;-68
2022/11/01 00:25:22;;;;;;;18.60;7.00;;;;;;;8.02;100.00;101635.69;5034380;28;20022;-64
2022/11/01 00:27:48;;;;;;;18.00;6.13;;;;;;;8.18;100.00;101630.34;5035398;28;20029;-64
2022/11/01 00:30:13;;;;;;;24.75;6.75;;;;;;;8.24;100.00;101629.16;5035422;28;20034;-65
2022/11/01 00:32:39;;;;;;;22.23;7.18;;;;;;;8.23;100.00;101632.75;5035524;28;20033;-64
2022/11/01 00:35:05;;;;;;;16.27;5.80;;;;;;;8.22;100.00;101631.00;5035216;28;20375;-65
2022/11/01 00:37:30;;;;;;;15.13;6.28;;;;;;;8.12;100.00;101642.25;5035666;28;20108;-66
2022/11/01 00:39:56;;;;;;;24.48;6.80;;;;;;;8.07;100.00;101639.00;5035106;28;20034;-67
2022/11/01 00:42:21;;;;;;;23.67;7.13;;;;;;;8.00;100.00;101637.59;5035318;28;20033;-64
2022/11/01 00:44:47;;;;;;;18.30;6.45;;;;;;;8.01;100.00;101633.09;5035209;28;20037;-64
2022/11/01 00:47:12;;;;;;;23.25;6.50;;;;;;;7.92;100.00;101637.16;5035166;28;20064;-64
2022/11/01 00:49:38;;;;;;;18.73;6.35;;;;;;;7.80;100.00;101629.78;5033839;28;20041;-63
2022/11/01 00:52:03;;;;;;;24.58;8.63;;;;;;;7.72;100.00;101648.06;5035394;28;20026;-64
2022/11/01 00:54:29;;;;;;;21.50;7.28;;;;;;;7.63;100.00;101636.06;5035024;28;20068;-65
2022/11/01 00:56:55;;;;;;;23.15;7.60;;;;;;;7.51;100.00;101637.56;5033848;28;20057;-64
2022/11/01 00:59:20;;;;;;;19.30;7.03;;;;;;;7.60;100.00;101643.41;5033567;28;20440;-65
2022/11/01 01:01:46;;;;;;;24.00;6.95;;;;;;;7.70;100.00;101633.91;5034887;28;20045;-65
2022/11/01 01:04:12;;;;;;;26.55;7.18;;;;;;;7.85;100.00;101643.78;5033743;28;20030;-64
2022/11/01 01:06:37;;;;;;;22.17;7.07;;;;;;;7.88;100.00;101640.94;5033501;28;20529;-64
2022/11/01 01:09:03;;;;;;;19.33;6.47;;;;;;;7.90;100.00;101635.50;5034521;28;20071;-66
2022/11/01 01:11:29;;;;;;;12.75;5.47;;;;;;;7.98;100.00;101631.44;5034703;28;20505;-64
2022/11/01 01:13:55;;;;;;;15.70;5.38;;;;;;;7.97;100.00;101624.38;5034893;28;20037;-64
2022/11/01 01:16:21;;;;;;;16.85;4.82;;;;;;;8.03;100.00;101628.50;5034746;28;20026;-64
2022/11/01 01:18:47;;;;;;;19.15;5.22;;;;;;;8.04;100.00;101622.19;5035078;28;20029;-64
2022/11/01 01:21:13;;;;;;;12.88;4.90;;;;;;;8.02;100.00;101624.97;5034335;28;20112;-63
2022/11/01 01:23:38;;;;;;;13.73;4.70;;;;;;;8.01;100.00;101619.69;5033030;28;20487;-65
2022/11/01 01:26:06;;;;;;;22.90;6.35;;;;;;;7.98;100.00;101609.16;5034416;28;20064;-65
2022/11/01 01:28:32;;;;;;;17.55;5.65;;;;;;;8.01;100.00;101617.88;5032830;28;20030;-64
2022/11/01 01:30:57;;;;;;;18.02;5.35;;;;;;;7.96;100.00;101619.09;5033042;28;20036;-64
2022/11/01 01:33:23;;;;;;;15.23;5.65;;;;;;;7.97;100.00;101610.97;5034335;28;20064;-64
2022/11/01 01:35:48;;;;;;;19.10;5.50;;;;;;;7.96;100.00;101619.97;5034363;28;20033;-64
2022/11/01 01:38:14;;;;;;;15.63;5.18;;;;;;;7.87;100.00;101625.81;5034227;28;20453;-65
2022/11/01 01:40:40;;;;;;;18.55;6.53;;;;;;;7.84;100.00;101626.00;5034275;28;20037;-63
2022/11/01 01:43:10;;;;;;;19.45;7.10;;;;;;;7.87;100.00;101624.94;5033994;28;20045;-65
2022/11/01 01:45:38;;;;;;;18.77;5.18;;;;;;;7.80;100.00;101635.16;5034027;28;20492;-64
2022/11/01 01:48:13;;;;;;;14.52;5.07;;;;;;;7.89;100.00;101623.03;5032878;28;20406;-64
2022/11/01 01:50:47;;;;;;;19.27;6.53;;;;;;;7.83;100.00;101629.63;5034366;28;20040;-64
2022/11/01 01:53:42;;;;;;;14.30;5.00;;;;;;;7.76;100.00;101622.88;5034340;28;20059;-64
2022/11/01 01:56:11;;;;;;;19.43;5.47;;;;;;;7.64;100.00;101618.19;5031899;28;20045;-65
2022/11/01 01:58:42;;;;;;;16.48;5.35;;;;;;;7.79;100.00;101622.72;5033787;28;20030;-65
2022/11/01 02:01:07;;;;;;;14.48;4.53;;;;;;;7.85;100.00;101615.19;5033531;28;20041;-65
2022/11/01 02:03:36;;;;;;;20.20;5.68;;;;;;;7.81;100.00;101615.44;5033738;28;20061;-64
2022/11/01 02:06:14;;;;;;;11.80;4.60;;;;;;;7.76;100.00;101622.88;5032626;28;20021;-64
2022/11/01 02:08:44;;;;;;;21.92;5.72;;;;;;;7.57;100.00;101627.50;5033880;28;20033;-64
2022/11/01 02:11:10;;;;;;;22.13;5.30;;;;;;;7.74;100.00;101624.78;5032278;28;20056;-64
2022/11/01 02:13:36;;;;;;;24.45;5.90;;;;;;;7.75;100.00;101626.50;5032307;28;20384;-65
2022/11/01 02:16:36;;;;;;;22.23;5.28;;;;;;;7.79;100.00;101622.72;5033506;28;20136;-64
2022/11/01 02:19:20;;;;;;;14.70;5.65;;;;;;;7.90;100.00;101628.34;5033207;28;20485;-64
2022/11/01 02:21:58;;;;;;;17.42;5.07;;;;;;;7.98;100.00;101620.75;5033743;28;20038;-65
2022/11/01 02:24:47;;;;;;;23.85;5.40;;;;;;;8.00;100.00;101621.50;5033313;28;20037;-64
2022/11/01 02:27:26;;;;;;;17.40;4.68;;;;;;;8.02;100.00;101621.44;5021924;28;20041;-64
2022/11/01 02:30:11;;;;;;;16.85;4.18;;;;;;;8.00;100.00;101616.16;5033427;28;20848;-64
2022/11/01 02:32:46;;;;;;;15.60;4.85;;;;;;;8.06;100.00;101617.63;5033247;28;20032;-64
2022/11/01 02:35:17;;;;;;;12.85;4.43;;;;;;;8.08;100.00;101613.94;5033505;28;20394;-64
2022/11/01 02:37:58;;;;;;;16.42;3.90;;;;;;;8.08;100.00;101619.28;5033081;28;20025;-63
2022/11/01 02:40:30;;;;;;;17.73;4.63;;;;;;;8.09;100.00;101612.97;5030953;28;20135;-63
2022/11/01 02:43:02;;;;;;;18.33;4.97;;;;;;;8.09;100.00;101612.13;5031179;28;20037;-64
2022/11/01 02:45:35;;;;;;;18.33;4.47;;;;;;;8.05;100.00;101614.06;5032662;28;20037;-64
2022/11/01 02:48:01;;;;;;;16.42;4.18;;;;;;;8.10;100.00;101617.38;5032770;28;20103;-65
2022/11/01 02:50:35;;;;;;;18.63;4.15;;;;;;;8.13;100.00;101614.53;5032393;28;20041;-64
2022/11/01 02:53:01;;;;;;;15.90;4.38;;;;;;;8.18;100.00;101616.94;5030940;28;20026;-63
2022/11/01 02:55:30;;;;;;;16.10;4.25;;;;;;;8.22;100.00;101609.59;5032028;28;20052;-64
2022/11/01 02:58:05;;;;;;;14.77;4.20;;;;;;;8.26;100.00;101614.69;5031189;28;20048;-64
2022/11/01 03:00:34;;;;;;;18.02;4.07;;;;;;;8.23;100.00;101612.22;5031091;28;20030;-64
2022/11/01 03:03:26;;;;;;;17.13;4.43;;;;;;;8.23;100.00;101603.28;5032399;28;20036;-65
2022/11/01 03:06:03;;;;;;;14.88;4.05;;;;;;;8.29;100.00;101611.84;5032604;28;20025;-64
2022/11/01 03:08:45;;;;;;;20.27;4.85;;;;;;;8.23;100.00;101608.63;5031568;28;20354;-64
2022/11/01 03:11:19;;;;;;;15.52;3.95;;;;;;;8.21;100.00;101607.84;5032771;28;20033;-64
2022/11/01 03:14:13;;;;;;;19.92;3.97;;;;;;;8.22;100.00;101604.22;5032670;28;20029;-65
2022/11/01 03:16:53;;;;;;;17.90;3.80;;;;;;;8.23;100.00;101605.94;5031311;28;20037;-64
2022/11/01 03:19:19;;;;;;;10.90;3.15;;;;;;;8.25;100.00;101594.22;5031111;28;20548;-63
2022/11/01 03:21:59;;;;;;;21.15;4.15;;;;;;;8.26;100.00;101600.44;5032414;28;20029;-63
2022/11/01 03:24:53;;;;;;;16.15;4.32;;;;;;;8.27;100.00;101602.16;5032497;28;20033;-65
2022/11/01 03:27:32;;;;;;;10.70;3.75;;;;;;;8.32;100.00;101600.09;5031438;28;20140;-65
2022/11/01 03:30:03;;;;;;;16.13;3.58;;;;;;;8.33;100.00;101601.81;5032134;28;20041;-64
2022/11/01 03:32:35;;;;;;;17.73;3.95;;;;;;;8.34;100.00;101603.56;5030909;28;20025;-64
2022/11/01 03:35:03;;;;;;;14.60;4.15;;;;;;;8.32;100.00;101594.72;5032331;28;20052;-65
2022/11/01 03:37:31;;;;;;;14.98;3.60;;;;;;;8.32;100.00;101592.91;5032368;28;20036;-64
2022/11/01 03:40:01;;;;;;;16.10;4.25;;;;;;;8.29;100.00;101601.13;5032292;28;20057;-65
2022/11/01 03:42:28;;;;;;;13.07;3.53;;;;;;;8.32;100.00;101600.94;5032166;28;20079;-63
2022/11/01 03:45:01;;;;;;;20.10;4.15;;;;;;;8.29;100.00;101592.22;5030750;28;20482;-64
2022/11/01 03:47:27;;;;;;;17.13;3.83;;;;;;;8.29;100.00;101600.25;5030926;28;20032;-64
2022/11/01 03:50:13;;;;;;;11.50;3.42;;;;;;;8.32;100.00;101600.09;5032180;28;20111;-64
2022/11/01 03:52:38;;;;;;;14.70;3.63;;;;;;;8.30;100.00;101596.63;5030736;28;20030;-64
2022/11/01 03:55:16;;;;;;;14.35;3.45;;;;;;;8.35;100.00;101594.56;5032012;28;20093;-64
2022/11/01 03:57:57;;;;;;;13.95;3.45;;;;;;;8.29;100.00;101590.41;5030625;28;20026;-63
2022/11/01 04:00:25;;;;;;;14.27;4.13;;;;;;;8.37;100.00;101592.66;5030870;28;20486;-65
2022/11/01 04:02:52;;;;;;;15.68;4.05;;;;;;;8.28;100.00;101593.19;5031797;28;20474;-65
2022/11/01 04:05:19;;;;;;;13.52;3.28;;;;;;;8.29;100.00;101592.22;5031870;28;20072;-64
2022/11/01 04:07:45;;;;;;;15.77;4.00;;;;;;;8.32;100.00;101594.72;5031710;28;20041;-64
2022/11/01 04:10:12;;;;;;;9.40;3.45;;;;;;;8.33;100.00;101591.94;5031846;28;20033;-64
2022/11/01 04:12:38;;;;;;;18.63;4.00;;;;;;;8.32;100.00;101589.38;5031635;28;20036;-64
2022/11/01 04:20:49;;;;;;;17.88;3.67;;;;;;;8.26;100.00;101584.38;5031641;28;20040;-63
2022/11/01 04:23:15;;;;;;;11.02;3.83;;;;;;;8.27;100.00;101586.97;5031436;28;20037;-63
2022/11/01 04:25:45;;;;;;;18.85;4.15;;;;;;;8.25;100.00;101588.00;5031592;28;20033;-64
2022/11/01 04:28:11;;;;;;;16.25;3.22;;;;;;;8.28;100.00;101583.31;5030386;28;20036;-64
2022/11/01 04:30:37;;;;;;;15.65;3.58;;;;;;;8.31;100.00;101584.97;5031664;28;20037;-65
2022/11/01 04:33:02;;;;;;;12.45;4.13;;;;;;;8.32;100.00;101586.69;5031366;28;20057;-65
2022/11/01 04:35:28;;;;;;;13.75;3.95;;;;;;;8.27;100.00;101586.09;5030440;28;20052;-65
2022/11/01 04:37:57;;;;;;;14.18;3.20;;;;;;;8.28;100.00;101579.78;5030434;28;20116;-65
2022/11/01 04:40:23;;;;;;;14.85;4.40;;;;;;;8.27;100.00;101581.59;5030039;28;20062;-65
2022/11/01 04:42:49;;;;;;;15.88;4.50;;;;;;;8.31;100.00;101576.91;5030607;28;20043;-66
2022/11/01 04:45:14;;;;;;;17.60;5.13;;;;;;;8.37;100.00;101579.25;5031694;28;20029;-65
2022/11/01 04:47:49;;;;;;;12.98;3.80;;;;;;;8.33;100.00;101570.53;5031540;28;20030;-65
2022/11/01 04:50:16;;;;;;;12.32;3.15;;;;;;;8.37;100.00;101576.59;5031310;28;20033;-64
2022/11/01 04:52:41;;;;;;;14.20;3.50;;;;;;;8.39;100.00;101574.69;5030033;28;20509;-65
2022/11/01 04:55:07;;;;;;;15.27;3.35;;;;;;;8.42;100.00;101571.84;5031176;28;20124;-65
2022/11/01 04:57:40;;;;;;;16.77;4.65;;;;;;;8.46;100.00;101570.72;5031385;28;20036;-66
2022/11/01 05:00:10;;;;;;;15.30;4.32;;;;;;;8.43;100.00;101576.25;5031209;28;20039;-64
2022/11/01 05:02:36;;;;;;;11.55;4.35;;;;;;;8.38;100.00;101567.59;5029934;28;20437;-65
2022/11/01 05:05:03;;;;;;;10.77;3.17;;;;;;;8.34;100.00;101566.06;5034223;28;20069;-63
2022/11/01 05:07:29;;;;;;;14.18;4.10;;;;;;;8.37;100.00;101565.88;5033503;28;20466;-65
2022/11/01 05:09:55;;;;;;;13.52;3.40;;;;;;;8.43;100.00;101578.94;5034864;28;20635;-64
2022/11/01 05:12:20;;;;;;;14.45;3.70;;;;;;;8.42;100.00;101574.53;5034417;28;20430;-63
2022/11/01 05:14:46;;;;;;;16.13;3.40;;;;;;;8.50;100.00;101571.38;5033234;28;20034;-65
2022/11/01 05:17:11;;;;;;;11.80;2.95;;;;;;;8.53;100.00;101571.19;5032783;28;20028;-65
2022/11/01 05:19:37;;;;;;;14.52;3.38;;;;;;;8.57;100.00;101568.28;5033083;28;20031;-65
2022/11/01 05:22:03;;;;;;;17.67;4.38;;;;;;;8.57;100.00;101573.63;5033298;28;20320;-66
2022/11/01 05:24:28;;;;;;;14.40;4.05;;;;;;;8.57;100.00;101573.63;5034317;28;20033;-63
2022/11/01 05:26:54;;;;;;;26.13;4.13;;;;;;;8.58;100.00;101570.00;5034418;28;20036;-64
2022/11/01 05:29:20;;;;;;;20.52;3.55;;;;;;;8.58;100.00;101570.00;5032421;28;20037;-64
2022/11/01 05:31:45;;;;;;;16.70;4.40;;;;;;;8.57;100.00;101572.78;5034952;28;20355;-63
2022/11/01 05:34:11;;;;;;;12.52;3.55;;;;;;;8.61;100.00;101575.19;5034387;28;20068;-64
2022/11/01 05:36:37;;;;;;;17.40;4.10;;;;;;;8.67;100.00;101571.25;5034465;28;20109;-65
2022/11/01 05:39:03;;;;;;;10.48;4.00;;;;;;;8.58;100.00;101575.34;5034005;28;20033;-64
2022/11/01 05:41:28;;;;;;;19.02;4.05;;;;;;;8.66;100.00;101567.72;5033879;28;20037;-65
2022/11/01 05:43:54;;;;;;;12.30;3.60;;;;;;;8.64;100.00;101568.75;5032667;28;20053;-65
2022/11/01 05:46:19;;;;;;;14.48;4.13;;;;;;;8.60;100.00;101572.59;5034340;28;20049;-65
2022/11/01 05:48:45;;;;;;;13.43;4.30;;;;;;;8.67;100.00;101568.56;5032877;28;20041;-65
2022/11/01 05:51:11;;;;;;;14.27;3.58;;;;;;;8.69;100.00;101574.69;5031968;28;20063;-64
2022/11/01 05:53:36;;;;;;;12.88;3.17;;;;;;;8.71;100.00;101568.28;5033843;28;20467;-64
2022/11/01 05:56:03;;;;;;;9.88;3.22;;;;;;;8.69;100.00;101567.53;5033836;28;20056;-64
2022/11/01 05:58:29;;;;;;;16.88;3.13;;;;;;;8.67;100.00;101568.56;5033615;28;20045;-64
2022/11/01 06:00:59;;;;;;;16.35;3.67;;;;;;;8.69;100.00;101572.88;5031947;28;20037;-64
2022/11/01 06:03:25;;;;;;;13.20;2.90;;;;;;;8.66;100.00;101573.06;5033681;28;20037;-66
2022/11/01 06:05:51;;;;;;;12.40;4.05;;;;;;;8.59;100.00;101571.72;5032181;28;20473;-64
2022/11/01 06:08:17;;;;;;;13.07;3.55;;;;;;;8.52;100.00;101575.69;5033731;28;20116;-64
2022/11/01 06:10:43;;;;;;;8.70;3.35;;;;;;;8.50;100.00;101574.94;5033167;28;20338;-64
2022/11/01 06:13:08;;;;;;;7.95;2.13;;;;;;;8.49;100.00;101581.25;5031561;28;20112;-65
2022/11/01 06:15:34;;;;;;;15.05;3.50;;;;;;;8.44;100.00;101583.34;5032906;28;20224;-65
2022/11/01 06:18:00;;;;;;;12.05;2.65;;;;;;;8.48;100.00;101579.53;5031792;28;20463;-65
2022/11/01 06:20:28;;;;;;;10.02;2.75;;;;;;;8.48;100.00;101579.53;5032985;28;20041;-65
2022/11/01 06:22:54;;;;;;;11.77;2.78;;;;;;;8.55;100.00;101586.22;5032173;28;20034;-65
2022/11/01 06:25:21;;;;;;;8.93;2.85;;;;;;;8.63;100.00;101578.63;5031976;28;20056;-64
2022/11/01 06:27:47;;;;;;;9.43;2.75;;;;;;;8.63;100.00;101577.75;5032193;28;20394;-67
2022/11/01 06:30:13;;;;;;;13.05;2.10;;;;;;;8.81;100.00;101581.16;5031641;28;20022;-65
2022/11/01 06:32:38;;;;;;;6.97;2.28;;;;;;;8.84;100.00;101589.88;5032311;28;20441;-65
2022/11/01 06:35:04;;;;;;;10.75;2.33;;;;;;;8.87;100.00;101588.84;5031045;28;20428;-64
2022/11/01 06:37:30;;;;;;;11.80;3.65;;;;;;;8.89;100.00;101584.25;5031949;28;20041;-65
2022/11/01 06:39:55;;;;;;;9.02;2.83;;;;;;;8.92;100.00;101574.22;5029874;28;20052;-66
2022/11/01 06:42:21;;;;;;;16.70;3.70;;;;;;;8.98;100.00;101575.66;5030706;28;20095;-65
2022/11/01 06:44:47;;;;;;;9.85;2.17;;;;;;;8.96;100.00;101574.88;5031895;28;20037;-64
2022/11/01 06:47:12;;;;;;;11.32;3.95;;;;;;;8.92;100.00;101576.03;5031634;28;20176;-66
2022/11/01 06:49:38;;;;;;;18.52;3.30;;;;;;;8.98;100.00;101572.97;5031856;28;20045;-66
2022/11/01 06:52:04;;;;;;;9.73;2.33;;;;;;;8.99;100.00;101577.38;5032286;28;20078;-65
2022/11/01 06:54:31;;;;;;;13.75;2.90;;;;;;;9.09;100.00;101577.69;5032415;28;20029;-65
2022/11/01 06:56:56;;;;;;;10.55;1.83;;;;;;;9.05;100.00;101574.31;5031089;28;20385;-68
2022/11/01 06:59:22;;;;;;;11.20;2.50;;;;;;;9.09;100.00;101570.50;5031973;28;20033;-65
2022/11/01 07:01:48;;;;;;;8.88;2.45;;;;;;;9.17;100.00;101573.56;5030266;28;20108;-67
2022/11/01 07:04:14;;;;;;;9.38;2.53;;;;;;;9.14;100.00;101579.13;5032347;28;20033;-65
2022/11/01 07:06:39;;;;;;;9.25;1.65;;;;;;;9.21;100.00;101574.22;5032301;28;20044;-67
2022/11/01 07:09:05;;;;;;;9.02;1.77;;;;;;;9.21;100.00;101577.78;5029541;28;20056;-66
2022/11/01 07:11:32;;;;;;;7.38;2.00;;;;;;;9.22;100.00;101574.13;5030375;28;20034;-65
2022/11/01 07:13:58;;;;;;;7.95;1.95;;;;;;;9.29;100.00;101572.81;5030000;28;20071;-66
2022/11/01 07:16:24;;;;;;;8.52;3.25;;;;;;;9.31;100.00;101578.94;5031231;28;20040;-66
2022/11/01 07:18:50;;;;;;;9.80;1.80;;;;;;;9.31;100.00;101578.94;5030252;28;20509;-67
2022/11/01 07:21:16;;;;;;;9.27;2.10;;;;;;;9.35;100.00;101571.56;5031087;28;20049;-66
2022/11/01 07:23:42;;;;;;;14.43;4.75;;;;;;;9.46;100.00;101578.97;5031121;28;20232;-64
2022/11/01 07:26:07;;;;;;;14.90;3.50;;;;;;;9.44;100.00;101570.16;5028984;28;20497;-67
2022/11/01 07:28:34;;;;;;;9.45;1.55;;;;;;;9.44;100.00;101578.19;5030939;28;20065;-65
2022/11/01 07:30:59;;;;;;;7.97;1.95;;;;;;;9.50;100.00;101577.81;5030904;28;20029;-66
2022/11/01 07:33:25;;;;;;;11.82;2.50;;;;;;;9.54;100.00;101582.00;5031031;28;20200;-66
2022/11/01 07:35:52;;;;;;;6.10;1.92;;;;;;;9.56;100.00;101574.72;5030989;28;20044;-67
2022/11/01 07:38:18;;;;;;;10.13;3.72;;;;;;;9.57;100.00;101571.06;5029825;28;20057;-66
2022/11/01 07:40:48;;;;;;;8.10;2.53;;;;;;;9.63;100.00;101568.03;5029476;28;20029;-66
2022/11/01 07:43:15;;;;;;;8.45;1.90;;;;;;;9.66;100.00;101581.25;5031049;28;20116;-66
2022/11/01 07:45:41;;;;;;;10.88;2.50;;;;;;;9.67;99.70;101574.91;5030773;28;20029;-67
2022/11/01 07:48:10;;;;;;;9.52;2.33;;;;;;;9.63;98.68;101571.56;5029528;28;20029;-68
2022/11/01 07:50:38;;;;;;;11.50;2.00;;;;;;;9.69;98.45;101581.06;5031069;28;20047;-67
2022/11/01 07:53:06;;;;;;;12.23;2.88;;;;;;;9.85;100.00;101587.16;5030879;28;20025;-66
2022/11/01 07:55:33;;;;;;;9.20;2.75;;;;;;;9.89;99.50;101583.31;5029403;28;20057;-66
2022/11/01 07:57:59;;;;;;;9.20;1.85;;;;;;;9.82;97.64;101587.38;5029818;28;20033;-65
2022/11/01 08:00:25;;;;;;;10.65;2.00;;;;;;;9.88;97.24;101584.28;5029812;28;20525;-66
2022/11/01 08:02:51;;;;;;;10.80;1.98;;;;;;;9.93;95.90;101595.63;5031217;28;20112;-66
2022/11/01 08:05:17;;;;;;;11.38;2.22;;;;;;;9.91;95.30;101592.19;5029792;28;20036;-66
2022/11/01 08:07:43;;;;;;;10.50;2.03;;;;;;;9.96;96.53;101583.81;5029210;28;20041;-67
2022/11/01 08:10:11;;;;;;;4.72;1.50;;;;;;;9.90;95.36;101590.41;5031198;28;20022;-65
2022/11/01 08:12:37;;;;;;;9.23;2.15;;;;;;;9.78;93.74;101580.47;5031078;28;20402;-67
2022/11/01 08:15:04;;;;;;;7.90;2.33;;;;;;;9.95;93.12;101584.78;5030862;28;20029;-66
2022/11/01 08:17:32;;;;;;;7.18;1.70;;;;;;;9.90;92.90;101579.69;5029807;28;20492;-66
2022/11/01 08:19:57;;;;;;;6.68;2.30;;;;;;;9.97;93.74;101579.31;5031210;28;20037;-67
2022/11/01 08:22:23;;;;;;;10.18;2.85;;;;;;;10.18;92.54;101577.91;5031095;28;20116;-65
2022/11/01 08:24:49;;;;;;;7.60;2.08;;;;;;;10.13;93.10;101569.28;5030895;28;20036;-66
2022/11/01 08:27:14;;;;;;;7.82;2.53;;;;;;;10.18;93.33;101577.91;5029970;28;20129;-66
2022/11/01 08:29:40;;;;;;;6.55;2.33;;;;;;;10.09;92.31;101589.25;5030467;28;20114;-67
2022/11/01 08:32:05;;;;;;;9.80;2.88;;;;;;;10.19;92.58;101574.25;5030855;28;20085;-66
2022/11/01 08:34:31;;;;;;;9.18;2.80;;;;;;;10.29;92.07;101580.78;5031409;28;20353;-66
2022/11/01 08:36:57;;;;;;;9.50;2.15;;;;;;;10.23;91.84;101575.78;5030696;28;20029;-66
2022/11/01 08:39:23;;;;;;;10.45;2.63;;;;;;;10.22;90.81;101580.31;5034099;28;20113;-67
2022/11/01 08:41:49;;;;;;;8.05;2.13;;;;;;;10.16;90.85;101577.13;5033530;28;20512;-66
2022/11/01 08:44:19;;;;;;;7.72;2.40;;;;;;;10.37;91.56;101573.06;5034904;28;20471;-66
2022/11/01 08:46:45;;;;;;;10.25;3.78;;;;;;;10.37;90.89;101572.19;5033993;28;20034;-67
2022/11/01 08:49:12;;;;;;;8.60;2.30;;;;;;;10.26;90.02;101572.94;5033301;28;20471;-66
2022/11/01 08:51:38;;;;;;;6.82;2.05;;;;;;;10.35;90.65;101569.63;5034447;28;20072;-67
2022/11/01 08:54:06;;;;;;;10.60;2.58;;;;;;;10.39;90.91;101562.19;5033942;28;20030;-68
2022/11/01 08:56:32;;;;;;;7.20;2.00;;;;;;;10.47;89.61;101567.94;5033017;28;20049;-69
2022/11/01 08:58:58;;;;;;;11.85;3.13;;;;;;;10.37;89.44;101567.69;5034673;28;20033;-68
2022/11/01 09:01:25;;;;;;;12.82;2.20;;;;;;;10.40;89.93;101578.22;5032814;28;20045;-67
2022/11/01 09:03:59;;;;;;;8.73;2.00;;;;;;;10.35;89.81;101575.00;5034368;28;20038;-67
2022/11/01 09:06:26;;;;;;;8.40;2.40;;;;;;;10.37;89.18;101575.75;5034306;28;20117;-67
2022/11/01 09:08:55;;;;;;;15.75;2.33;;;;;;;10.37;90.03;101573.06;5034739;28;20048;-66
2022/11/01 09:11:22;;;;;;;8.00;2.47;;;;;;;10.40;90.12;101572.84;5034121;28;20528;-67
2022/11/01 09:13:49;;;;;;;5.68;1.52;;;;;;;10.51;89.30;101569.44;5034189;28;20090;-67
2022/11/01 09:16:15;;;;;;;6.45;2.08;;;;;;;10.47;89.04;101576.88;5032694;28;20041;-67
2022/11/01 09:18:41;;;;;;;8.32;2.97;;;;;;;10.38;89.67;101564.03;5032269;28;20033;-67
2022/11/01 09:21:07;;;;;;;7.72;2.67;;;;;;;10.50;89.49;101563.22;5033924;28;20386;-67
2022/11/01 09:23:34;;;;;;;6.97;2.00;;;;;;;10.51;89.21;101564.06;5033950;28;20116;-67
2022/11/01 09:26:02;;;;;;;7.47;2.28;;;;;;;10.53;88.33;101563.00;5034703;28;20037;-67
2022/11/01 09:28:29;;;;;;;11.45;3.78;;;;;;;10.51;88.18;101570.31;5034242;28;20040;-67
2022/11/01 09:30:55;;;;;;;6.45;2.17;;;;;;;10.60;88.75;101559.94;5033866;28;20474;-66
2022/11/01 09:33:22;;;;;;;9.95;2.78;;;;;;;10.45;88.64;101565.38;5033514;28;20033;-68
2022/11/01 09:35:52;;;;;;;9.38;2.20;;;;;;;10.49;88.47;101566.00;5032229;28;20462;-67
2022/11/01 09:38:18;;;;;;;7.03;2.60;;;;;;;10.55;87.63;101569.13;5034214;28;20041;-67
2022/11/01 09:40:46;;;;;;;22.90;11.43;;;;;;;10.51;87.70;101572.16;5032765;28;20037;-67
2022/11/01 09:43:23;;;;;;;16.33;5.72;;;;;;;10.41;87.82;101571.91;5032139;28;20104;-67
2022/11/01 09:45:54;;;;;;;7.97;2.70;;;;;;;10.50;88.01;101571.28;5032224;28;20051;-70
2022/11/01 09:48:20;;;;;;;12.10;2.42;;;;;;;10.45;87.47;101568.06;5033727;28;20087;-69
2022/11/01 09:50:46;;;;;;;7.75;1.95;;;;;;;10.48;87.28;101565.16;5033127;28;20038;-66
2022/11/01 09:53:26;;;;;;;7.28;2.03;;;;;;;10.66;87.23;101562.19;5032084;28;20033;-67
2022/11/01 09:56:39;;;;;;;12.43;2.22;;;;;;;10.57;86.77;101552.91;5033528;28;20057;-67
2022/11/01 09:59:14;;;;;;;11.27;2.58;;;;;;;10.59;87.23;101552.81;5029772;28;20043;-68
2022/11/01 10:01:42;;;;;;;11.90;4.38;;;;;;;10.62;87.78;101558.00;5032183;28;20041;-68
2022/11/01 10:04:25;;;;;;;9.50;2.72;;;;;;;10.72;88.24;101561.75;5031809;28;20037;-67
2022/11/01 10:07:05;;;;;;;8.52;2.03;;;;;;;10.74;87.41;101559.81;5031734;28;20083;-67
2022/11/01 10:09:51;;;;;;;9.13;2.72;;;;;;;10.62;86.74;101558.00;5031163;28;20112;-66
2022/11/01 10:12:37;;;;;;;7.22;2.00;;;;;;;10.40;86.82;101551.34;5033067;28;20048;-66
2022/11/01 10:15:18;;;;;;;8.77;2.28;;;;;;;10.57;86.84;101552.03;5031621;28;20037;-69
2022/11/01 10:17:50;;;;;;;6.57;1.90;;;;;;;10.64;86.66;101550.69;5033087;28;20087;-67
2022/11/01 10:20:18;;;;;;;10.30;3.40;;;;;;;10.76;85.36;101547.16;5031642;28;20040;-67
2022/11/01 10:22:47;;;;;;;10.52;2.45;;;;;;;10.71;84.55;101551.97;5032573;28;20036;-67
2022/11/01 10:25:21;;;;;;;9.50;2.28;;;;;;;10.82;85.12;101549.41;5031013;28;20128;-67
2022/11/01 10:28:19;;;;;;;9.63;2.35;;;;;;;10.82;84.72;101542.22;5032778;28;20083;-67
2022/11/01 10:30:55;;;;;;;7.47;1.85;;;;;;;10.83;83.51;101548.44;5033030;28;20029;-67
2022/11/01 10:33:29;;;;;;;7.10;1.80;;;;;;;10.81;82.96;101551.25;5030845;28;20056;-67
2022/11/01 10:36:02;;;;;;;6.05;1.88;;;;;;;10.71;84.12;101541.22;5030723;28;20030;-67
2022/11/01 10:39:14;;;;;;;8.90;3.35;;;;;;;10.69;84.53;101545.84;5031013;28;20049;-67
2022/11/01 10:41:51;;;;;;;8.75;2.00;;;;;;;10.58;84.48;101543.88;5025713;28;20041;-67
2022/11/01 10:44:28;;;;;;;9.00;2.63;;;;;;;10.49;84.64;101545.38;5030693;28;20348;-67
2022/11/01 10:46:55;;;;;;;9.43;2.80;;;;;;;10.67;84.66;101547.78;5032414;28;20082;-68
2022/11/01 10:49:30;;;;;;;7.78;2.00;;;;;;;10.82;84.17;101535.97;5031992;28;20497;-68
2022/11/01 10:52:04;;;;;;;13.07;3.30;;;;;;;10.69;83.67;101548.53;5032300;28;20113;-66
2022/11/01 10:54:34;;;;;;;7.50;2.22;;;;;;;10.58;84.93;101553.75;5031036;28;20040;-67
2022/11/01 10:57:06;;;;;;;6.15;2.25;;;;;;;10.63;84.63;101552.50;5030768;28;20491;-68
2022/11/01 10:59:40;;;;;;;10.50;3.55;;;;;;;10.79;85.21;101542.44;5030608;28;20037;-68
2022/11/01 11:02:17;;;;;;;9.27;3.22;;;;;;;10.68;85.77;101538.72;5030788;28;20048;-69
2022/11/01 11:04:42;;;;;;;11.25;2.80;;;;;;;10.76;86.16;101536.41;5031457;28;20041;-68
2022/11/01 11:07:12;;;;;;;15.48;2.80;;;;;;;10.69;86.30;101532.38;5031271;28;20021;-67
2022/11/01 11:09:38;;;;;;;9.18;2.72;;;;;;;10.66;85.61;101540.66;5030240;28;20398;-68
2022/11/01 11:12:22;;;;;;;5.45;2.28;;;;;;;10.68;84.78;101544.13;5030159;28;20028;-68
2022/11/01 11:14:56;;;;;;;9.93;3.45;;;;;;;10.66;85.18;101537.97;5031610;28;20481;-68
2022/11/01 11:17:30;;;;;;;13.57;4.07;;;;;;;10.68;84.63;101530.66;5031879;28;20079;-69
2022/11/01 11:20:01;;;;;;;11.32;2.90;;;;;;;10.71;84.21;101528.63;5031720;28;20514;-68
2022/11/01 11:22:28;;;;;;;6.25;2.03;;;;;;;10.63;84.48;101525.63;5030303;28;20029;-68
2022/11/01 11:24:57;;;;;;;8.27;2.00;;;;;;;10.62;84.21;101529.28;5032013;28;20034;-68
2022/11/01 11:27:29;;;;;;;9.57;1.33;;;;;;;10.66;83.48;101524.53;5030366;28;20030;-68
2022/11/01 11:29:59;;;;;;;9.63;3.17;;;;;;;10.62;84.30;101534.66;5031415;28;20025;-69
2022/11/01 11:32:30;;;;;;;6.03;2.15;;;;;;;10.58;83.00;101533.09;5030985;28;20029;-69
2022/11/01 11:35:18;;;;;;;8.27;2.20;;;;;;;10.51;83.76;101538.06;5029351;28;20386;-70